createdAt,value
2018-12-08T00:00:30.745Z,7.58
2018-12-08T00:01:30.890Z,7.85
2018-12-08T00:02:30.856Z,7.63
2018-12-08T00:03:30.912Z,7.54
2018-12-08T00:04:30.967Z,7.51
2018-12-08T00:05:31.022Z,7.52
2018-12-08T00:06:31.079Z,7.36
2018-12-08T00:07:31.135Z,7.24
2018-12-08T00:08:31.190Z,7.12
2018-12-08T00:09:31.244Z,7.12
2018-12-08T00:10:31.300Z,7.48
2018-12-08T00:11:31.356Z,7.82
2018-12-08T00:12:31.413Z,8.00
2018-12-08T00:13:31.466Z,8.09
2018-12-08T00:14:31.522Z,8.09
2018-12-08T00:15:31.577Z,7.71
2018-12-08T00:16:31.634Z,7.48
2018-12-08T00:17:31.689Z,7.52
2018-12-08T00:18:31.745Z,7.70
2018-12-08T00:19:31.799Z,7.85
2018-12-08T00:20:31.856Z,7.99
2018-12-08T00:21:31.919Z,7.94
2018-12-08T00:22:31.967Z,7.91
2018-12-08T00:23:32.023Z,8.00
2018-12-08T00:24:32.080Z,8.00
2018-12-08T00:25:32.133Z,7.91
2018-12-08T00:26:32.188Z,8.06
2018-12-08T00:27:32.245Z,7.91
2018-12-08T00:28:32.307Z,7.82
2018-12-08T00:29:32.355Z,7.77
2018-12-08T00:30:32.412Z,7.84
2018-12-08T00:31:32.467Z,8.02
2018-12-08T00:32:32.524Z,8.07
2018-12-08T00:33:32.578Z,8.29
2018-12-08T00:34:32.634Z,8.29
2018-12-08T00:35:32.694Z,8.43
2018-12-08T00:36:32.747Z,8.36
2018-12-08T00:37:32.802Z,8.46
2018-12-08T00:38:32.858Z,8.46
2018-12-08T00:39:32.915Z,8.46
2018-12-08T00:40:32.970Z,8.47
2018-12-08T00:41:33.025Z,8.32
2018-12-08T00:42:33.080Z,8.32
2018-12-08T00:43:33.136Z,8.28
2018-12-08T00:44:33.193Z,8.28
2018-12-08T00:45:33.247Z,8.36
2018-12-08T00:46:33.304Z,8.29
2018-12-08T00:47:33.360Z,8.29
2018-12-08T00:48:33.416Z,8.28
2018-12-08T00:49:33.470Z,8.27
2018-12-08T00:50:33.526Z,8.14
2018-12-08T00:51:33.583Z,8.20
2018-12-08T00:52:33.640Z,8.12
2018-12-08T00:53:33.695Z,8.06
2018-12-08T00:54:33.752Z,8.00
2018-12-08T00:55:33.806Z,7.96
2018-12-08T00:56:33.863Z,8.04
2018-12-08T00:57:33.917Z,8.09
2018-12-08T00:58:33.974Z,8.10
2018-12-08T00:59:34.030Z,8.04
2018-12-08T01:00:34.084Z,8.12
2018-12-08T01:01:34.139Z,8.07
2018-12-08T01:02:34.196Z,7.99
2018-12-08T01:03:34.253Z,8.02
2018-12-08T01:04:34.311Z,8.09
2018-12-08T01:05:34.362Z,8.17
2018-12-08T01:06:34.420Z,8.14
2018-12-08T01:07:34.478Z,8.12
2018-12-08T01:08:34.532Z,8.07
2018-12-08T01:09:34.587Z,8.09
2018-12-08T01:10:34.641Z,8.02
2018-12-08T01:11:34.698Z,7.96
2018-12-08T01:12:34.753Z,8.03
2018-12-08T01:13:34.811Z,8.02
2018-12-08T01:14:34.866Z,8.02
2018-12-08T01:15:34.920Z,8.02
2018-12-08T01:16:34.980Z,7.99
2018-12-08T01:17:35.032Z,7.94
2018-12-08T01:18:35.088Z,7.92
2018-12-08T01:19:35.144Z,7.99
2018-12-08T01:20:35.199Z,7.96
2018-12-08T01:21:35.256Z,7.91
2018-12-08T01:22:35.311Z,7.91
2018-12-08T01:23:35.369Z,7.94
2018-12-08T01:24:35.424Z,7.82
2018-12-08T01:25:35.497Z,7.81
2018-12-08T01:26:35.535Z,7.84
2018-12-08T01:27:35.591Z,7.70
2018-12-08T01:28:35.645Z,7.69
2018-12-08T01:29:35.700Z,7.58
2018-12-08T01:30:35.759Z,7.57
2018-12-08T01:31:35.813Z,7.50
2018-12-08T01:32:35.868Z,7.55
2018-12-08T01:33:35.923Z,7.70
2018-12-08T01:34:35.980Z,7.76
2018-12-08T01:35:36.041Z,7.67
2018-12-08T01:36:36.096Z,7.67
2018-12-08T01:37:36.151Z,7.70
2018-12-08T01:38:36.205Z,7.76
2018-12-08T01:39:36.263Z,7.82
2018-12-08T01:40:36.318Z,7.79
2018-12-08T01:41:36.373Z,7.84
2018-12-08T01:42:36.432Z,7.81
2018-12-08T01:43:36.486Z,7.84
2018-12-08T01:44:36.540Z,7.91
2018-12-08T01:45:36.598Z,7.91
2018-12-08T01:46:36.652Z,7.95
2018-12-08T01:47:36.707Z,7.79
2018-12-08T01:48:36.763Z,7.85
2018-12-08T01:49:36.819Z,7.81
2018-12-08T01:50:36.873Z,7.94
2018-12-08T01:51:36.930Z,7.89
2018-12-08T01:52:36.991Z,7.82
2018-12-08T01:53:37.041Z,7.85
2018-12-08T01:54:37.097Z,7.81
2018-12-08T01:55:37.153Z,7.79
2018-12-08T01:56:37.207Z,7.71
2018-12-08T01:57:37.262Z,7.74
2018-12-08T01:58:37.321Z,7.70
2018-12-08T01:59:37.376Z,7.66
2018-12-08T02:00:37.431Z,7.60
2018-12-08T02:01:37.486Z,7.70
2018-12-08T02:02:37.542Z,7.71
2018-12-08T02:03:37.599Z,7.74
2018-12-08T02:04:37.654Z,7.71
2018-12-08T02:05:37.707Z,7.74
2018-12-08T02:06:37.763Z,7.70
2018-12-08T02:07:37.819Z,7.69
2018-12-08T02:08:37.876Z,7.76
2018-12-08T02:09:37.929Z,7.81
2018-12-08T02:10:37.985Z,7.66
2018-12-08T02:11:38.043Z,7.69
2018-12-08T02:12:38.098Z,7.67
2018-12-08T02:13:38.153Z,7.74
2018-12-08T02:14:38.209Z,7.74
2018-12-08T02:15:38.264Z,7.77
2018-12-08T02:16:38.319Z,7.70
2018-12-08T02:17:38.374Z,7.71
2018-12-08T02:18:38.430Z,7.73
2018-12-08T02:19:38.486Z,7.69
2018-12-08T02:20:38.541Z,7.71
2018-12-08T02:21:38.596Z,7.74
2018-12-08T02:22:38.653Z,7.60
2018-12-08T02:23:38.709Z,7.70
2018-12-08T02:24:38.765Z,7.74
2018-12-08T02:25:38.820Z,7.73
2018-12-08T02:26:38.876Z,7.70
2018-12-08T02:27:38.932Z,7.70
2018-12-08T02:28:38.986Z,7.73
2018-12-08T02:29:39.041Z,7.85
2018-12-08T02:30:39.099Z,7.76
2018-12-08T02:31:39.169Z,7.79
2018-12-08T02:32:39.211Z,7.82
2018-12-08T02:33:39.266Z,7.82
2018-12-08T02:34:39.322Z,7.70
2018-12-08T02:35:39.378Z,7.71
2018-12-08T02:36:39.440Z,7.74
2018-12-08T02:37:39.491Z,7.67
2018-12-08T02:38:39.544Z,7.82
2018-12-08T02:39:39.599Z,7.73
2018-12-08T02:40:39.660Z,7.67
2018-12-08T02:41:39.715Z,7.69
2018-12-08T02:42:39.765Z,7.70
2018-12-08T02:43:39.821Z,7.67
2018-12-08T02:44:39.880Z,7.70
2018-12-08T02:45:39.933Z,7.66
2018-12-08T02:46:39.989Z,7.63
2018-12-08T02:47:40.047Z,7.63
2018-12-08T02:48:40.107Z,7.67
2018-12-08T02:49:40.156Z,7.60
2018-12-08T02:50:40.212Z,7.67
2018-12-08T02:51:40.270Z,7.63
2018-12-08T02:52:40.324Z,7.63
2018-12-08T02:53:40.377Z,7.69
2018-12-08T02:54:40.434Z,7.66
2018-12-08T02:55:40.490Z,7.57
2018-12-08T02:56:40.546Z,7.55
2018-12-08T02:57:40.603Z,7.66
2018-12-08T02:58:40.656Z,7.69
2018-12-08T02:59:40.714Z,7.67
2018-12-08T03:00:40.768Z,7.69
2018-12-08T03:01:40.823Z,7.69
2018-12-08T03:02:40.879Z,7.70
2018-12-08T03:03:40.935Z,7.69
2018-12-08T03:04:40.995Z,7.69
2018-12-08T03:05:41.048Z,7.81
2018-12-08T03:06:41.101Z,7.85
2018-12-08T03:07:41.158Z,7.73
2018-12-08T03:08:41.214Z,7.74
2018-12-08T03:09:41.270Z,7.74
2018-12-08T03:10:41.324Z,7.69
2018-12-08T03:11:41.381Z,7.70
2018-12-08T03:12:41.436Z,7.79
2018-12-08T03:13:41.491Z,7.70
2018-12-08T03:14:41.547Z,7.66
2018-12-08T03:15:41.603Z,7.67
2018-12-08T03:16:41.659Z,7.73
2018-12-08T03:17:41.712Z,7.69
2018-12-08T03:18:41.768Z,7.70
2018-12-08T03:19:41.824Z,7.66
2018-12-08T03:20:41.881Z,7.66
2018-12-08T03:21:41.935Z,7.70
2018-12-08T03:22:41.998Z,7.70
2018-12-08T03:23:42.048Z,7.63
2018-12-08T03:24:42.111Z,7.63
2018-12-08T03:25:42.157Z,7.63
2018-12-08T03:26:42.213Z,7.62
2018-12-08T03:27:42.270Z,7.71
2018-12-08T03:28:42.328Z,7.81
2018-12-08T03:29:42.381Z,7.81
2018-12-08T03:30:45.350Z,7.86
2018-12-08T03:31:42.493Z,7.82
2018-12-08T03:32:42.547Z,7.81
2018-12-08T03:33:42.603Z,7.85
2018-12-08T03:34:42.657Z,7.77
2018-12-08T03:35:42.713Z,7.85
2018-12-08T03:36:42.768Z,7.79
2018-12-08T03:37:42.831Z,7.81
2018-12-08T03:38:42.880Z,7.66
2018-12-08T03:39:42.937Z,7.82
2018-12-08T03:40:42.992Z,7.71
2018-12-08T03:41:43.047Z,7.69
2018-12-08T03:42:43.101Z,7.71
2018-12-08T03:43:43.158Z,7.76
2018-12-08T03:44:43.213Z,7.71
2018-12-08T03:45:43.270Z,7.71
2018-12-08T03:46:43.324Z,7.73
2018-12-08T03:47:43.380Z,7.71
2018-12-08T03:48:43.435Z,7.84
2018-12-08T03:49:43.492Z,7.79
2018-12-08T03:50:43.546Z,7.79
2018-12-08T03:51:43.602Z,7.67
2018-12-08T03:52:43.661Z,7.74
2018-12-08T03:53:43.713Z,7.82
2018-12-08T03:54:43.770Z,7.71
2018-12-08T03:55:44.971Z,7.81
2018-12-08T03:56:43.885Z,7.67
2018-12-08T03:57:43.933Z,7.70
2018-12-08T03:58:43.990Z,7.84
2018-12-08T03:59:44.049Z,7.76
2018-12-08T04:00:44.102Z,7.82
2018-12-08T04:01:44.158Z,7.82
2018-12-08T04:02:44.213Z,7.88
2018-12-08T04:03:44.269Z,7.82
2018-12-08T04:04:44.323Z,7.82
2018-12-08T04:05:44.378Z,7.85
2018-12-08T04:06:44.433Z,7.85
2018-12-08T04:07:44.491Z,7.81
2018-12-08T04:08:44.545Z,7.82
2018-12-08T04:09:44.601Z,7.85
2018-12-08T04:10:44.657Z,7.81
2018-12-08T04:11:44.711Z,7.79
2018-12-08T04:12:44.767Z,7.86
2018-12-08T04:13:44.825Z,7.85
2018-12-08T04:14:44.878Z,7.85
2018-12-08T04:15:44.937Z,7.84
2018-12-08T04:16:45.049Z,7.85
2018-12-08T04:17:45.044Z,7.84
2018-12-08T04:18:45.103Z,7.79
2018-12-08T04:19:45.157Z,7.84
2018-12-08T04:20:45.213Z,7.82
2018-12-08T04:21:45.268Z,7.82
2018-12-08T04:22:45.323Z,7.92
2018-12-08T04:23:45.382Z,7.91
2018-12-08T04:24:45.433Z,7.81
2018-12-08T04:25:45.491Z,7.88
2018-12-08T04:26:45.543Z,7.84
2018-12-08T04:27:45.600Z,7.95
2018-12-08T04:28:45.656Z,7.94
2018-12-08T04:29:45.710Z,7.82
2018-12-08T04:30:45.768Z,7.86
2018-12-08T04:31:45.821Z,7.84
2018-12-08T04:32:45.878Z,7.66
2018-12-08T04:33:45.936Z,7.73
2018-12-08T04:34:45.990Z,7.79
2018-12-08T04:35:46.045Z,7.79
2018-12-08T04:36:46.100Z,7.84
2018-12-08T04:37:46.158Z,7.81
2018-12-08T04:38:46.213Z,7.81
2018-12-08T04:39:46.267Z,7.73
2018-12-08T04:40:46.323Z,7.73
2018-12-08T04:41:46.377Z,7.71
2018-12-08T04:42:46.433Z,7.71
2018-12-08T04:43:46.491Z,7.69
2018-12-08T04:44:46.545Z,7.81
2018-12-08T04:45:46.598Z,7.82
2018-12-08T04:46:46.655Z,7.82
2018-12-08T04:47:46.711Z,7.81
2018-12-08T04:48:46.766Z,7.79
2018-12-08T04:49:46.820Z,7.82
2018-12-08T04:50:46.878Z,7.82
2018-12-08T04:51:46.933Z,7.81
2018-12-08T04:52:47.004Z,7.85
2018-12-08T04:53:47.042Z,7.85
2018-12-08T04:54:47.098Z,7.82
2018-12-08T04:55:47.155Z,7.85
2018-12-08T04:56:47.210Z,7.88
2018-12-08T04:57:47.265Z,7.92
2018-12-08T04:58:47.334Z,7.91
2018-12-08T04:59:47.379Z,7.89
2018-12-08T05:00:47.433Z,7.94
2018-12-08T05:01:47.488Z,7.96
2018-12-08T05:02:47.544Z,7.96
2018-12-08T05:03:47.599Z,8.03
2018-12-08T05:04:47.655Z,8.04
2018-12-08T05:05:47.711Z,8.04
2018-12-08T05:06:47.768Z,8.12
2018-12-08T05:07:47.821Z,8.09
2018-12-08T05:08:47.878Z,8.03
2018-12-08T05:09:47.932Z,8.02
2018-12-08T05:10:47.988Z,8.07
2018-12-08T05:11:48.043Z,8.09
2018-12-08T05:12:48.098Z,8.00
2018-12-08T05:13:48.153Z,7.94
2018-12-08T05:14:48.209Z,8.06
2018-12-08T05:15:48.266Z,8.02
2018-12-08T05:16:48.321Z,8.00
2018-12-08T05:17:48.377Z,7.92
2018-12-08T05:18:48.432Z,8.00
2018-12-08T05:19:48.491Z,7.95
2018-12-08T05:20:48.543Z,7.99
2018-12-08T05:21:48.598Z,8.06
2018-12-08T05:22:48.655Z,8.00
2018-12-08T05:23:49.022Z,7.95
2018-12-08T05:24:48.767Z,8.02
2018-12-08T05:25:48.822Z,7.99
2018-12-08T05:26:48.878Z,7.99
2018-12-08T05:27:48.933Z,7.95
2018-12-08T05:28:48.989Z,7.84
2018-12-08T05:29:49.044Z,7.95
2018-12-08T05:30:49.099Z,7.99
2018-12-08T05:31:49.156Z,8.00
2018-12-08T05:32:49.212Z,7.94
2018-12-08T05:33:49.267Z,7.88
2018-12-08T05:34:49.321Z,7.96
2018-12-08T05:35:49.378Z,7.94
2018-12-08T05:36:49.434Z,7.94
2018-12-08T05:37:49.489Z,7.92
2018-12-08T05:38:49.544Z,8.00
2018-12-08T05:39:49.600Z,7.95
2018-12-08T05:40:49.656Z,7.94
2018-12-08T05:41:49.711Z,8.03
2018-12-08T05:42:49.767Z,8.06
2018-12-08T05:43:49.822Z,8.03
2018-12-08T05:44:49.885Z,8.00
2018-12-08T05:45:49.934Z,8.06
2018-12-08T05:46:49.989Z,8.02
2018-12-08T05:47:50.045Z,8.09
2018-12-08T05:48:50.101Z,8.06
2018-12-08T05:49:50.159Z,8.03
2018-12-08T05:50:50.271Z,8.06
2018-12-08T05:51:50.267Z,8.10
2018-12-08T05:52:50.323Z,8.09
2018-12-08T05:53:50.380Z,8.14
2018-12-08T05:54:50.435Z,8.12
2018-12-08T05:55:50.490Z,8.04
2018-12-08T05:56:50.546Z,8.17
2018-12-08T05:57:50.601Z,8.14
2018-12-08T05:58:50.656Z,8.18
2018-12-08T05:59:50.715Z,8.27
2018-12-08T06:00:50.769Z,8.14
2018-12-08T06:01:50.826Z,8.13
2018-12-08T06:02:50.889Z,8.21
2018-12-08T06:03:50.935Z,8.25
2018-12-08T06:04:50.990Z,8.24
2018-12-08T06:05:51.046Z,8.09
2018-12-08T06:06:51.102Z,8.07
2018-12-08T06:07:51.157Z,8.17
2018-12-08T06:08:51.214Z,8.14
2018-12-08T06:09:51.269Z,8.17
2018-12-08T06:10:51.324Z,8.14
2018-12-08T06:11:51.380Z,8.00
2018-12-08T06:12:51.436Z,8.00
2018-12-08T06:13:51.490Z,7.94
2018-12-08T06:14:51.551Z,7.89
2018-12-08T06:15:51.603Z,7.89
2018-12-08T06:16:51.658Z,7.81
2018-12-08T06:17:51.713Z,7.88
2018-12-08T06:18:51.770Z,7.84
2018-12-08T06:19:51.826Z,7.82
2018-12-08T06:20:51.885Z,7.82
2018-12-08T06:21:51.936Z,7.81
2018-12-08T06:22:51.991Z,7.88
2018-12-08T06:23:52.047Z,7.84
2018-12-08T06:24:52.103Z,7.82
2018-12-08T06:25:52.156Z,7.79
2018-12-08T06:26:52.213Z,7.86
2018-12-08T06:27:52.269Z,7.81
2018-12-08T06:28:52.325Z,7.86
2018-12-08T06:29:52.379Z,7.86
2018-12-08T06:30:52.438Z,7.85
2018-12-08T06:31:52.490Z,7.85
2018-12-08T06:32:52.547Z,7.81
2018-12-08T06:33:52.601Z,7.82
2018-12-08T06:34:52.657Z,7.79
2018-12-08T06:35:52.712Z,7.81
2018-12-08T06:36:52.768Z,7.84
2018-12-08T06:37:52.823Z,7.84
2018-12-08T06:38:52.879Z,7.84
2018-12-08T06:39:52.935Z,7.85
2018-12-08T06:40:52.989Z,7.86
2018-12-08T06:41:53.045Z,7.76
2018-12-08T06:42:53.101Z,7.81
2018-12-08T06:43:53.156Z,7.84
2018-12-08T06:44:53.211Z,7.79
2018-12-08T06:45:53.266Z,7.84
2018-12-08T06:46:53.323Z,7.86
2018-12-08T06:47:53.378Z,7.84
2018-12-08T06:48:53.435Z,7.88
2018-12-08T06:49:53.489Z,7.84
2018-12-08T06:50:53.544Z,7.92
2018-12-08T06:51:53.602Z,7.84
2018-12-08T06:52:53.656Z,7.84
2018-12-08T06:53:53.710Z,7.81
2018-12-08T06:54:53.766Z,7.95
2018-12-08T06:55:53.824Z,7.84
2018-12-08T06:56:53.877Z,7.92
2018-12-08T06:57:53.934Z,7.91
2018-12-08T06:58:53.988Z,7.82
2018-12-08T06:59:54.045Z,7.84
2018-12-08T07:00:54.100Z,7.82
2018-12-08T07:01:54.156Z,7.99
2018-12-08T07:02:54.211Z,7.85
2018-12-08T07:03:54.267Z,7.94
2018-12-08T07:04:54.321Z,7.79
2018-12-08T07:05:54.377Z,7.79
2018-12-08T07:06:54.432Z,7.71
2018-12-08T07:07:54.487Z,7.74
2018-12-08T07:08:54.543Z,7.70
2018-12-08T07:09:54.598Z,7.63
2018-12-08T07:10:54.655Z,7.62
2018-12-08T07:11:54.711Z,7.76
2018-12-08T07:12:54.766Z,7.81
2018-12-08T07:13:54.820Z,7.66
2018-12-08T07:14:54.877Z,7.71
2018-12-08T07:15:54.932Z,7.70
2018-12-08T07:16:54.988Z,7.71
2018-12-08T07:17:55.042Z,7.60
2018-12-08T07:18:55.098Z,7.58
2018-12-08T07:19:55.154Z,7.62
2018-12-08T07:20:55.209Z,7.66
2018-12-08T07:21:55.265Z,7.67
2018-12-08T07:22:55.320Z,7.66
2018-12-08T07:23:55.377Z,7.63
2018-12-08T07:24:55.432Z,7.70
2018-12-08T07:25:55.486Z,7.63
2018-12-08T07:26:55.541Z,7.66
2018-12-08T07:27:55.597Z,7.71
2018-12-08T07:28:55.653Z,7.71
2018-12-08T07:29:55.707Z,7.69
2018-12-08T07:30:55.762Z,7.66
2018-12-08T07:31:55.819Z,7.81
2018-12-08T07:32:55.875Z,7.74
2018-12-08T07:33:55.928Z,7.66
2018-12-08T07:34:55.984Z,7.70
2018-12-08T07:35:56.041Z,7.67
2018-12-08T07:36:56.096Z,7.71
2018-12-08T07:37:56.152Z,7.82
2018-12-08T07:38:56.207Z,7.88
2018-12-08T07:39:57.598Z,7.82
2018-12-08T07:40:56.993Z,8.02
2018-12-08T07:41:56.376Z,8.00
2018-12-08T07:42:56.427Z,8.04
2018-12-08T07:43:56.485Z,8.03
2018-12-08T07:44:56.539Z,8.02
2018-12-08T07:45:56.596Z,8.04
2018-12-08T07:46:56.650Z,8.00
2018-12-08T07:47:56.717Z,8.06
2018-12-08T07:48:56.761Z,8.00
2018-12-08T07:49:56.817Z,7.92
2018-12-08T07:50:56.874Z,7.94
2018-12-08T07:51:56.928Z,7.92
2018-12-08T07:52:56.984Z,7.99
2018-12-08T07:53:57.052Z,7.92
2018-12-08T07:54:57.110Z,7.99
2018-12-08T07:55:57.168Z,8.00
2018-12-08T07:56:57.207Z,7.99
2018-12-08T07:57:57.260Z,8.00
2018-12-08T07:58:57.316Z,8.06
2018-12-08T07:59:57.374Z,8.09
2018-12-08T08:00:57.429Z,8.04
2018-12-08T08:01:57.483Z,7.96
2018-12-08T08:02:57.540Z,7.96
2018-12-08T08:03:57.596Z,8.02
2018-12-08T08:04:57.651Z,8.06
2018-12-08T08:05:57.706Z,8.06
2018-12-08T08:06:57.761Z,8.03
2018-12-08T08:07:57.821Z,8.04
2018-12-08T08:08:57.874Z,8.06
2018-12-08T08:09:57.928Z,7.96
2018-12-08T08:10:57.985Z,8.02
2018-12-08T08:11:58.040Z,8.02
2018-12-08T08:12:58.153Z,7.96
2018-12-08T08:13:58.151Z,8.06
2018-12-08T08:14:58.207Z,8.10
2018-12-08T08:15:58.273Z,8.14
2018-12-08T08:16:59.623Z,8.12
2018-12-08T08:17:58.375Z,8.18
2018-12-08T08:18:58.430Z,8.17
2018-12-08T08:19:58.487Z,8.27
2018-12-08T08:20:58.543Z,8.14
2018-12-08T08:21:58.597Z,8.22
2018-12-08T08:22:58.654Z,8.22
2018-12-08T08:23:58.709Z,8.12
2018-12-08T08:24:58.765Z,8.20
2018-12-08T08:25:58.821Z,8.18
2018-12-08T08:26:58.876Z,8.25
2018-12-08T08:27:58.943Z,8.24
2018-12-08T08:28:58.990Z,8.27
2018-12-08T08:29:59.045Z,8.22
2018-12-08T08:30:59.102Z,8.21
2018-12-08T08:31:59.158Z,8.21
2018-12-08T08:32:59.212Z,8.17
2018-12-08T08:33:59.268Z,8.13
2018-12-08T08:34:59.326Z,8.04
2018-12-08T08:35:59.383Z,8.10
2018-12-08T08:36:59.437Z,8.13
2018-12-08T08:37:59.492Z,8.06
2018-12-08T08:38:59.550Z,8.09
2018-12-08T08:39:59.603Z,8.09
2018-12-08T08:40:59.659Z,8.10
2018-12-08T08:41:59.716Z,8.03
2018-12-08T08:42:59.770Z,8.02
2018-12-08T08:43:59.826Z,7.94
2018-12-08T08:44:59.885Z,8.03
2018-12-08T08:45:59.938Z,7.95
2018-12-08T08:46:59.994Z,7.94
2018-12-08T08:48:00.050Z,8.02
2018-12-08T08:49:00.106Z,7.99
2018-12-08T08:50:00.535Z,8.00
2018-12-08T08:51:00.215Z,7.94
2018-12-08T08:52:00.275Z,8.00
2018-12-08T08:53:00.328Z,8.03
2018-12-08T08:54:00.384Z,8.02
2018-12-08T08:55:00.438Z,7.92
2018-12-08T08:56:00.494Z,7.96
2018-12-08T08:57:00.551Z,8.04
2018-12-08T08:58:00.608Z,7.99
2018-12-08T08:59:00.663Z,8.00
2018-12-08T09:00:00.717Z,8.04
2018-12-08T09:01:00.775Z,8.10
2018-12-08T09:02:00.829Z,8.14
2018-12-08T09:03:00.891Z,8.09
2018-12-08T09:04:01.032Z,8.13
2018-12-08T09:05:01.097Z,8.12
2018-12-08T09:06:01.060Z,8.04
2018-12-08T09:07:01.107Z,8.12
2018-12-08T09:08:01.163Z,8.10
2018-12-08T09:09:01.220Z,8.17
2018-12-08T09:10:01.277Z,8.13
2018-12-08T09:11:01.332Z,8.18
2018-12-08T09:12:01.388Z,8.20
2018-12-08T09:13:01.442Z,8.13
2018-12-08T09:14:01.499Z,8.22
2018-12-08T09:15:01.556Z,8.18
2018-12-08T09:16:01.612Z,8.24
2018-12-08T09:17:01.667Z,8.25
2018-12-08T09:18:01.722Z,8.17
2018-12-08T09:19:01.777Z,8.28
2018-12-08T09:20:01.835Z,8.36
2018-12-08T09:21:01.892Z,8.29
2018-12-08T09:22:01.951Z,8.32
2018-12-08T09:23:02.002Z,8.31
2018-12-08T09:24:02.058Z,8.34
2018-12-08T09:25:02.116Z,8.29
2018-12-08T09:26:02.169Z,8.36
2018-12-08T09:27:03.143Z,8.31
2018-12-08T09:28:02.283Z,8.29
2018-12-08T09:29:02.340Z,8.37
2018-12-08T09:30:02.397Z,8.29
2018-12-08T09:31:02.452Z,8.28
2018-12-08T09:32:02.508Z,8.29
2018-12-08T09:33:02.564Z,8.25
2018-12-08T09:34:02.619Z,8.32
2018-12-08T09:35:02.676Z,8.40
2018-12-08T09:36:02.732Z,8.37
2018-12-08T09:37:02.788Z,8.45
2018-12-08T09:38:02.842Z,8.47
2018-12-08T09:39:02.899Z,8.46
2018-12-08T09:40:02.955Z,8.58
2018-12-08T09:41:03.013Z,8.57
2018-12-08T09:42:03.068Z,8.49
2018-12-08T09:43:03.127Z,8.49
2018-12-08T09:44:03.181Z,8.52
2018-12-08T09:45:03.238Z,8.60
2018-12-08T09:46:03.292Z,8.61
2018-12-08T09:47:03.350Z,8.57
2018-12-08T09:48:03.406Z,8.58
2018-12-08T09:49:03.462Z,8.47
2018-12-08T09:50:03.519Z,8.57
2018-12-08T09:51:03.590Z,8.54
2018-12-08T09:52:03.650Z,8.61
2018-12-08T09:53:03.690Z,8.63
2018-12-08T09:54:03.744Z,8.58
2018-12-08T09:55:03.808Z,8.64
2018-12-08T09:56:03.859Z,8.58
2018-12-08T09:57:03.918Z,8.67
2018-12-08T09:58:03.972Z,8.61
2018-12-08T09:59:04.025Z,8.57
2018-12-08T10:00:04.083Z,8.67
2018-12-08T10:01:04.139Z,8.65
2018-12-08T10:02:04.195Z,8.71
2018-12-08T10:03:04.251Z,8.64
2018-12-08T10:04:04.307Z,8.55
2018-12-08T10:05:04.364Z,8.64
2018-12-08T10:06:04.421Z,8.61
2018-12-08T10:07:04.477Z,8.65
2018-12-08T10:08:04.535Z,8.65
2018-12-08T10:09:04.591Z,8.64
2018-12-08T10:10:04.649Z,8.60
2018-12-08T10:11:04.703Z,8.64
2018-12-08T10:12:04.759Z,8.60
2018-12-08T10:13:04.817Z,8.65
2018-12-08T10:14:04.871Z,8.65
2018-12-08T10:15:04.929Z,8.71
2018-12-08T10:16:04.987Z,8.78
2018-12-08T10:17:05.042Z,8.70
2018-12-08T10:18:05.098Z,8.71
2018-12-08T10:19:05.155Z,8.73
2018-12-08T10:20:05.212Z,8.75
2018-12-08T10:21:05.345Z,8.75
2018-12-08T10:22:05.644Z,8.75
2018-12-08T10:23:05.381Z,8.71
2018-12-08T10:24:05.440Z,8.76
2018-12-08T10:25:05.494Z,8.71
2018-12-08T10:26:05.550Z,8.76
2018-12-08T10:27:05.609Z,8.75
2018-12-08T10:28:05.665Z,8.79
2018-12-08T10:29:05.721Z,8.76
2018-12-08T10:30:05.777Z,8.78
2018-12-08T10:31:05.833Z,8.79
2018-12-08T10:32:05.890Z,8.80
2018-12-08T10:33:05.945Z,8.83
2018-12-08T10:34:06.002Z,8.94
2018-12-08T10:35:06.064Z,9.01
2018-12-08T10:36:06.116Z,8.96
2018-12-08T10:37:06.171Z,8.94
2018-12-08T10:38:06.227Z,8.94
2018-12-08T10:39:06.285Z,8.94
2018-12-08T10:40:06.342Z,8.94
2018-12-08T10:41:06.398Z,8.89
2018-12-08T10:42:06.454Z,8.96
2018-12-08T10:43:06.511Z,8.96
2018-12-08T10:44:06.568Z,9.03
2018-12-08T10:45:06.625Z,9.03
2018-12-08T10:46:06.679Z,9.08
2018-12-08T10:47:06.737Z,9.15
2018-12-08T10:48:06.793Z,9.16
2018-12-08T10:49:06.851Z,9.23
2018-12-08T10:50:06.906Z,9.27
2018-12-08T10:51:06.963Z,9.19
2018-12-08T10:52:07.019Z,9.26
2018-12-08T10:53:07.077Z,9.20
2018-12-08T10:54:07.132Z,9.27
2018-12-08T10:55:07.230Z,9.30
2018-12-08T10:56:07.246Z,9.26
2018-12-08T10:57:07.303Z,9.26
2018-12-08T10:58:07.360Z,9.19
2018-12-08T10:59:07.417Z,9.30
2018-12-08T11:00:07.473Z,9.31
2018-12-08T11:01:07.529Z,9.32
2018-12-08T11:02:08.216Z,9.17
2018-12-08T11:03:07.646Z,9.20
2018-12-08T11:04:08.338Z,9.20
2018-12-08T11:05:08.322Z,9.04
2018-12-08T11:06:07.813Z,9.24
2018-12-08T11:07:08.247Z,9.24
2018-12-08T11:08:07.926Z,9.40
2018-12-08T11:09:07.984Z,9.38
2018-12-08T11:10:08.044Z,9.37
2018-12-08T11:11:08.098Z,9.40
2018-12-08T11:12:08.154Z,9.37
2018-12-08T11:13:08.212Z,9.44
2018-12-08T11:14:08.268Z,9.40
2018-12-08T11:15:08.326Z,9.40
2018-12-08T11:16:08.382Z,9.37
2018-12-08T11:17:08.441Z,9.38
2018-12-08T11:18:08.497Z,9.37
2018-12-08T11:19:08.553Z,9.38
2018-12-08T11:20:08.611Z,9.27
2018-12-08T11:21:08.667Z,9.34
2018-12-08T11:22:08.725Z,9.35
2018-12-08T11:23:08.782Z,9.45
2018-12-08T11:24:08.840Z,9.37
2018-12-08T11:25:08.897Z,9.49
2018-12-08T11:26:08.955Z,9.49
2018-12-08T11:27:09.011Z,9.45
2018-12-08T11:28:09.067Z,9.71
2018-12-08T11:29:09.375Z,9.59
2018-12-08T11:30:09.185Z,9.48
2018-12-08T11:31:09.238Z,9.38
2018-12-08T11:32:09.299Z,9.48
2018-12-08T11:33:09.353Z,9.41
2018-12-08T11:34:09.412Z,9.35
2018-12-08T11:35:09.468Z,9.41
2018-12-08T11:36:09.525Z,9.41
2018-12-08T11:37:09.582Z,9.34
2018-12-08T11:38:09.638Z,9.27
2018-12-08T11:39:09.695Z,9.24
2018-12-08T11:40:09.753Z,9.27
2018-12-08T11:41:09.812Z,9.30
2018-12-08T11:42:09.872Z,9.31
2018-12-08T11:43:09.927Z,9.37
2018-12-08T11:44:09.986Z,9.37
2018-12-08T11:45:10.040Z,9.45
2018-12-08T11:46:10.096Z,9.37
2018-12-08T11:47:10.153Z,9.48
2018-12-08T11:48:10.211Z,9.40
2018-12-08T11:49:10.267Z,9.48
2018-12-08T11:50:10.324Z,9.53
2018-12-08T11:51:10.384Z,9.55
2018-12-08T11:52:10.438Z,9.45
2018-12-08T11:53:10.497Z,9.48
2018-12-08T11:54:10.552Z,9.48
2018-12-08T11:55:10.610Z,9.44
2018-12-08T11:56:10.667Z,9.48
2018-12-08T11:57:10.726Z,9.49
2018-12-08T11:58:10.781Z,9.38
2018-12-08T11:59:10.842Z,9.50
2018-12-08T12:00:10.907Z,9.65
2018-12-08T12:01:10.953Z,9.59
2018-12-08T12:02:16.450Z,9.67
2018-12-08T12:03:11.067Z,9.68
2018-12-08T12:04:11.125Z,9.50
2018-12-08T12:05:11.183Z,9.59
2018-12-08T12:06:11.236Z,9.55
2018-12-08T12:07:11.296Z,9.58
2018-12-08T12:08:11.351Z,9.63
2018-12-08T12:09:11.409Z,9.59
2018-12-08T12:10:11.469Z,9.56
2018-12-08T12:11:11.525Z,9.40
2018-12-08T12:12:11.579Z,9.53
2018-12-08T12:13:11.635Z,9.55
2018-12-08T12:14:11.693Z,9.50
2018-12-08T12:15:11.750Z,9.50
2018-12-08T12:16:11.806Z,9.48
2018-12-08T12:17:11.864Z,9.50
2018-12-08T12:18:11.921Z,9.49
2018-12-08T12:19:11.978Z,9.49
2018-12-08T12:20:12.034Z,9.53
2018-12-08T12:21:12.092Z,9.62
2018-12-08T12:22:12.149Z,9.65
2018-12-08T12:23:12.206Z,9.65
2018-12-08T12:24:12.264Z,9.74
2018-12-08T12:25:12.321Z,9.74
2018-12-08T12:26:12.378Z,9.60
2018-12-08T12:27:12.431Z,9.62
2018-12-08T12:28:12.488Z,9.70
2018-12-08T12:29:12.546Z,9.68
2018-12-08T12:30:12.608Z,9.68
2018-12-08T12:31:12.661Z,9.67
2018-12-08T12:32:12.716Z,9.71
2018-12-08T12:33:12.774Z,9.63
2018-12-08T12:34:12.831Z,9.71
2018-12-08T12:35:12.886Z,9.70
2018-12-08T12:36:12.944Z,9.65
2018-12-08T12:37:13.001Z,9.75
2018-12-08T12:38:13.058Z,9.88
2018-12-08T12:39:13.115Z,9.75
2018-12-08T12:40:13.957Z,9.65
2018-12-08T12:41:13.229Z,9.63
2018-12-08T12:42:13.599Z,9.49
2018-12-08T12:43:13.344Z,9.67
2018-12-08T12:44:13.398Z,9.89
2018-12-08T12:45:13.455Z,10.04
2018-12-08T12:46:13.512Z,9.85
2018-12-08T12:47:13.569Z,9.62
2018-12-08T12:48:13.625Z,9.73
2018-12-08T12:49:13.684Z,9.63
2018-12-08T12:50:13.739Z,9.59
2018-12-08T12:51:13.796Z,9.63
2018-12-08T12:52:13.853Z,9.65
2018-12-08T12:53:13.911Z,9.73
2018-12-08T12:54:13.965Z,9.74
2018-12-08T12:55:14.024Z,9.77
2018-12-08T12:56:14.085Z,9.70
2018-12-08T12:57:14.139Z,9.77
2018-12-08T12:58:14.194Z,9.70
2018-12-08T12:59:14.253Z,9.63
2018-12-08T13:00:14.307Z,9.67
2018-12-08T13:01:14.367Z,9.68
2018-12-08T13:02:14.422Z,9.74
2018-12-08T13:03:14.477Z,9.63
2018-12-08T13:04:14.535Z,9.68
2018-12-08T13:05:14.592Z,9.62
2018-12-08T13:06:14.649Z,9.59
2018-12-08T13:07:14.706Z,9.56
2018-12-08T13:08:14.766Z,9.56
2018-12-08T13:09:14.820Z,9.59
2018-12-08T13:10:14.875Z,9.62
2018-12-08T13:11:14.932Z,9.65
2018-12-08T13:12:14.989Z,9.68
2018-12-08T13:13:15.046Z,9.70
2018-12-08T13:14:15.102Z,9.67
2018-12-08T13:15:15.160Z,9.65
2018-12-08T13:16:15.216Z,9.71
2018-12-08T13:17:15.274Z,9.68
2018-12-08T13:18:15.329Z,9.77
2018-12-08T13:19:15.387Z,9.71